sensor_id;sensor_type;location;lat;lon;timestamp;P1;P2;P0
74419;PMS5003;62855;50.718;-2.460;2024-03-23T00:55:06;4.54;2.93;
74419;PMS5003;62855;50.718;-2.460;2024-03-23T00:58:06;2.72;1.96;
74419;PMS5003;62855;50.718;-2.460;2024-03-23T01:01:05;2.72;2.93;
74419;PMS5003;62855;50.718;-2.460;2024-03-23T01:04:06;2.72;2.93;
74419;PMS5003;62855;50.718;-2.460;2024-03-23T01:07:05;3.63;2.93;
74419;PMS5003;62855;50.718;-2.460;2024-03-23T01:10:05;3.63;3.91;
74419;PMS5003;62855;50.718;-2.460;2024-03-23T01:13:05;3.63;2.93;
74419;PMS5003;62855;50.718;-2.460;2024-03-23T01:16:05;4.54;3.91;
74419;PMS5003;62855;50.718;-2.460;2024-03-23T01:19:06;2.72;2.93;
74419;PMS5003;62855;50.718;-2.460;2024-03-23T01:22:05;3.63;3.91;
74419;PMS5003;62855;50.718;-2.460;2024-03-23T01:25:05;3.63;3.91;
74419;PMS5003;62855;50.718;-2.460;2024-03-23T01:28:05;3.63;3.91;
74419;PMS5003;62855;50.718;-2.460;2024-03-23T01:31:05;2.72;2.93;
74419;PMS5003;62855;50.718;-2.460;2024-03-23T01:34:06;3.63;3.91;
74419;PMS5003;62855;50.718;-2.460;2024-03-23T01:37:05;4.54;3.91;
74419;PMS5003;62855;50.718;-2.460;2024-03-23T01:40:06;4.54;3.91;
74419;PMS5003;62855;50.718;-2.460;2024-03-23T01:43:06;2.72;1.96;
74419;PMS5003;62855;50.718;-2.460;2024-03-23T01:46:06;3.63;2.93;
74419;PMS5003;62855;50.718;-2.460;2024-03-23T01:49:06;4.54;3.91;
74419;PMS5003;62855;50.718;-2.460;2024-03-23T01:52:05;4.54;3.91;
74419;PMS5003;62855;50.718;-2.460;2024-03-23T01:55:06;4.54;2.93;
74419;PMS5003;62855;50.718;-2.460;2024-03-23T01:58:06;5.45;3.91;
74419;PMS5003;62855;50.718;-2.460;2024-03-23T02:01:05;4.54;2.93;
74419;PMS5003;62855;50.718;-2.460;2024-03-23T02:04:06;5.45;3.91;
74419;PMS5003;62855;50.718;-2.460;2024-03-23T02:07:05;4.54;3.91;
74419;PMS5003;62855;50.718;-2.460;2024-03-23T02:10:06;2.72;1.96;
74419;PMS5003;62855;50.718;-2.460;2024-03-23T02:13:06;3.63;2.93;
74419;PMS5003;62855;50.718;-2.460;2024-03-23T02:16:06;5.45;3.91;
74419;PMS5003;62855;50.718;-2.460;2024-03-23T02:19:05;4.54;3.91;
74419;PMS5003;62855;50.718;-2.460;2024-03-23T02:22:05;6.35;4.89;
74419;PMS5003;62855;50.718;-2.460;2024-03-23T02:25:06;4.54;2.93;
74419;PMS5003;62855;50.718;-2.460;2024-03-23T02:28:05;4.54;3.91;
74419;PMS5003;62855;50.718;-2.460;2024-03-23T02:31:06;5.45;3.91;
74419;PMS5003;62855;50.718;-2.460;2024-03-23T02:34:05;5.45;4.89;
74419;PMS5003;62855;50.718;-2.460;2024-03-23T02:37:10;6.35;4.89;
74419;PMS5003;62855;50.718;-2.460;2024-03-23T02:40:07;5.45;3.91;
74419;PMS5003;62855;50.718;-2.460;2024-03-23T02:43:05;6.35;4.89;
74419;PMS5003;62855;50.718;-2.460;2024-03-23T02:46:05;4.54;3.91;
74419;PMS5003;62855;50.718;-2.460;2024-03-23T02:49:06;3.63;2.93;
74419;PMS5003;62855;50.718;-2.460;2024-03-23T02:52:05;4.54;3.91;
74419;PMS5003;62855;50.718;-2.460;2024-03-23T02:55:05;5.45;4.89;
74419;PMS5003;62855;50.718;-2.460;2024-03-23T02:58:05;5.45;4.89;
74419;PMS5003;62855;50.718;-2.460;2024-03-23T03:01:06;4.54;3.91;
74419;PMS5003;62855;50.718;-2.460;2024-03-23T03:04:05;5.45;4.89;
74419;PMS5003;62855;50.718;-2.460;2024-03-23T03:07:05;5.45;4.89;
74419;PMS5003;62855;50.718;-2.460;2024-03-23T03:10:05;4.54;4.89;
74419;PMS5003;62855;50.718;-2.460;2024-03-23T03:13:05;5.45;4.89;
74419;PMS5003;62855;50.718;-2.460;2024-03-23T03:16:08;5.45;4.89;
74419;PMS5003;62855;50.718;-2.460;2024-03-23T03:19:06;4.54;4.89;
74419;PMS5003;62855;50.718;-2.460;2024-03-23T03:22:05;4.54;3.91;
74419;PMS5003;62855;50.718;-2.460;2024-03-23T03:25:05;4.54;3.91;
74419;PMS5003;62855;50.718;-2.460;2024-03-23T03:28:05;4.54;3.91;
74419;PMS5003;62855;50.718;-2.460;2024-03-23T03:31:05;4.54;3.91;
74419;PMS5003;62855;50.718;-2.460;2024-03-23T03:34:06;3.63;3.91;
74419;PMS5003;62855;50.718;-2.460;2024-03-23T03:37:05;3.63;3.91;
74419;PMS5003;62855;50.718;-2.460;2024-03-23T03:40:05;3.63;3.91;
74419;PMS5003;62855;50.718;-2.460;2024-03-23T03:43:06;3.63;3.91;
74419;PMS5003;62855;50.718;-2.460;2024-03-23T03:46:05;3.63;2.93;
74419;PMS5003;62855;50.718;-2.460;2024-03-23T03:49:05;4.54;2.93;
74419;PMS5003;62855;50.718;-2.460;2024-03-23T03:52:06;3.63;2.93;
74419;PMS5003;62855;50.718;-2.460;2024-03-23T03:55:12;3.63;2.93;
74419;PMS5003;62855;50.718;-2.460;2024-03-23T03:58:05;3.63;2.93;
74419;PMS5003;62855;50.718;-2.460;2024-03-23T04:01:05;3.63;2.93;
74419;PMS5003;62855;50.718;-2.460;2024-03-23T04:04:06;4.54;3.91;
74419;PMS5003;62855;50.718;-2.460;2024-03-23T04:07:05;4.54;3.91;
74419;PMS5003;62855;50.718;-2.460;2024-03-23T04:10:05;4.54;2.93;
74419;PMS5003;62855;50.718;-2.460;2024-03-23T04:13:06;4.54;2.93;
74419;PMS5003;62855;50.718;-2.460;2024-03-23T04:16:05;5.45;3.91;
74419;PMS5003;62855;50.718;-2.460;2024-03-23T04:19:05;5.45;3.91;
74419;PMS5003;62855;50.718;-2.460;2024-03-23T04:22:06;5.45;3.91;
74419;PMS5003;62855;50.718;-2.460;2024-03-23T04:25:06;5.45;3.91;
74419;PMS5003;62855;50.718;-2.460;2024-03-23T04:28:05;5.45;3.91;
74419;PMS5003;62855;50.718;-2.460;2024-03-23T04:31:05;6.35;3.91;
74419;PMS5003;62855;50.718;-2.460;2024-03-23T04:34:05;5.45;2.93;
74419;PMS5003;62855;50.718;-2.460;2024-03-23T04:37:06;5.45;2.93;
74419;PMS5003;62855;50.718;-2.460;2024-03-23T04:40:06;5.45;3.91;
74419;PMS5003;62855;50.718;-2.460;2024-03-23T04:43:05;6.35;3.91;
74419;PMS5003;62855;50.718;-2.460;2024-03-23T04:46:06;4.54;3.91;
74419;PMS5003;62855;50.718;-2.460;2024-03-23T04:49:05;5.45;4.89;
74419;PMS5003;62855;50.718;-2.460;2024-03-23T04:52:05;5.45;4.89;
74419;PMS5003;62855;50.718;-2.460;2024-03-23T04:55:06;6.35;4.89;
74419;PMS5003;62855;50.718;-2.460;2024-03-23T04:58:06;6.35;4.89;
74419;PMS5003;62855;50.718;-2.460;2024-03-23T05:01:05;6.35;5.87;
74419;PMS5003;62855;50.718;-2.460;2024-03-23T05:04:05;6.35;5.87;
74419;PMS5003;62855;50.718;-2.460;2024-03-23T05:07:05;6.35;5.87;
74419;PMS5003;62855;50.718;-2.460;2024-03-23T05:10:06;6.35;5.87;
74419;PMS5003;62855;50.718;-2.460;2024-03-23T05:13:06;5.45;4.89;
74419;PMS5003;62855;50.718;-2.460;2024-03-23T05:16:05;5.45;5.87;
74419;PMS5003;62855;50.718;-2.460;2024-03-23T05:19:05;6.35;4.89;
74419;PMS5003;62855;50.718;-2.460;2024-03-23T05:22:05;5.45;3.91;
74419;PMS5003;62855;50.718;-2.460;2024-03-23T05:25:06;4.54;3.91;
74419;PMS5003;62855;50.718;-2.460;2024-03-23T05:28:05;4.54;3.91;
74419;PMS5003;62855;50.718;-2.460;2024-03-23T05:31:05;3.63;2.93;
74419;PMS5003;62855;50.718;-2.460;2024-03-23T05:34:06;3.63;2.93;
74419;PMS5003;62855;50.718;-2.460;2024-03-23T05:37:05;5.45;3.91;
74419;PMS5003;62855;50.718;-2.460;2024-03-23T05:40:05;4.54;3.91;
74419;PMS5003;62855;50.718;-2.460;2024-03-23T05:43:06;4.54;2.93;
74419;PMS5003;62855;50.718;-2.460;2024-03-23T05:46:06;4.54;2.93;
74419;PMS5003;62855;50.718;-2.460;2024-03-23T05:49:05;3.63;2.93;
74419;PMS5003;62855;50.718;-2.460;2024-03-23T05:52:05;4.54;2.93;
74419;PMS5003;62855;50.718;-2.460;2024-03-23T05:55:05;3.63;1.96;
74419;PMS5003;62855;50.718;-2.460;2024-03-23T05:58:05;5.45;3.91;
74419;PMS5003;62855;50.718;-2.460;2024-03-23T06:01:05;5.45;3.91;
74419;PMS5003;62855;50.718;-2.460;2024-03-23T06:04:06;4.54;3.91;
74419;PMS5003;62855;50.718;-2.460;2024-03-23T06:07:05;4.54;3.91;
74419;PMS5003;62855;50.718;-2.460;2024-03-23T06:10:06;4.54;3.91;
74419;PMS5003;62855;50.718;-2.460;2024-03-23T06:13:05;5.45;4.89;
74419;PMS5003;62855;50.718;-2.460;2024-03-23T06:16:06;5.45;4.89;
74419;PMS5003;62855;50.718;-2.460;2024-03-23T06:19:05;4.54;3.91;
74419;PMS5003;62855;50.718;-2.460;2024-03-23T06:22:05;3.63;3.91;
74419;PMS5003;62855;50.718;-2.460;2024-03-23T06:25:07;3.63;3.91;
74419;PMS5003;62855;50.718;-2.460;2024-03-23T06:28:05;2.72;2.93;
74419;PMS5003;62855;50.718;-2.460;2024-03-23T06:31:08;3.63;3.91;
74419;PMS5003;62855;50.718;-2.460;2024-03-23T06:34:06;3.63;3.91;
74419;PMS5003;62855;50.718;-2.460;2024-03-23T06:37:05;2.72;2.93;
74419;PMS5003;62855;50.718;-2.460;2024-03-23T06:40:06;1.82;1.96;
74419;PMS5003;62855;50.718;-2.460;2024-03-23T06:43:05;2.72;2.93;
74419;PMS5003;62855;50.718;-2.460;2024-03-23T06:46:06;2.72;2.93;
74419;PMS5003;62855;50.718;-2.460;2024-03-23T06:49:05;2.72;2.93;
74419;PMS5003;62855;50.718;-2.460;2024-03-23T06:52:05;1.82;1.96;
74419;PMS5003;62855;50.718;-2.460;2024-03-23T06:55:05;1.82;1.96;
74419;PMS5003;62855;50.718;-2.460;2024-03-23T06:58:05;1.82;1.96;
74419;PMS5003;62855;50.718;-2.460;2024-03-23T07:01:05;0.91;0.98;
74419;PMS5003;62855;50.718;-2.460;2024-03-23T07:04:05;1.82;1.96;
74419;PMS5003;62855;50.718;-2.460;2024-03-23T07:07:06;2.72;1.96;
74419;PMS5003;62855;50.718;-2.460;2024-03-23T07:10:06;3.63;1.96;
74419;PMS5003;62855;50.718;-2.460;2024-03-23T07:13:05;3.63;2.93;
74419;PMS5003;62855;50.718;-2.460;2024-03-23T07:16:06;3.63;2.93;
74419;PMS5003;62855;50.718;-2.460;2024-03-23T07:19:05;3.63;2.93;
74419;PMS5003;62855;50.718;-2.460;2024-03-23T07:22:05;3.63;1.96;
74419;PMS5003;62855;50.718;-2.460;2024-03-23T07:25:06;4.54;2.93;
74419;PMS5003;62855;50.718;-2.460;2024-03-23T07:28:05;4.54;2.93;
74419;PMS5003;62855;50.718;-2.460;2024-03-23T07:31:06;5.45;3.91;
74419;PMS5003;62855;50.718;-2.460;2024-03-23T07:34:05;6.35;4.89;
74419;PMS5003;62855;50.718;-2.460;2024-03-23T07:37:06;5.45;3.91;
74419;PMS5003;62855;50.718;-2.460;2024-03-23T07:40:06;4.54;3.91;
74419;PMS5003;62855;50.718;-2.460;2024-03-23T07:43:05;4.54;3.91;
74419;PMS5003;62855;50.718;-2.460;2024-03-23T07:46:06;4.54;3.91;
74419;PMS5003;62855;50.718;-2.460;2024-03-23T07:49:06;3.63;2.93;
74419;PMS5003;62855;50.718;-2.460;2024-03-23T07:52:05;2.72;2.93;
74419;PMS5003;62855;50.718;-2.460;2024-03-23T07:55:05;3.63;3.91;
74419;PMS5003;62855;50.718;-2.460;2024-03-23T07:58:05;2.72;2.93;
74419;PMS5003;62855;50.718;-2.460;2024-03-23T08:01:06;2.72;2.93;
74419;PMS5003;62855;50.718;-2.460;2024-03-23T08:04:06;1.82;1.96;
74419;PMS5003;62855;50.718;-2.460;2024-03-23T08:07:05;3.63;2.93;
74419;PMS5003;62855;50.718;-2.460;2024-03-23T08:10:05;4.54;2.93;
74419;PMS5003;62855;50.718;-2.460;2024-03-23T08:13:06;4.54;2.93;
74419;PMS5003;62855;50.718;-2.460;2024-03-23T08:16:06;5.45;2.93;
74419;PMS5003;62855;50.718;-2.460;2024-03-23T08:19:06;5.45;2.93;
74419;PMS5003;62855;50.718;-2.460;2024-03-23T08:22:06;5.45;3.91;
74419;PMS5003;62855;50.718;-2.460;2024-03-23T08:25:06;5.45;3.91;
74419;PMS5003;62855;50.718;-2.460;2024-03-23T08:28:06;5.45;3.91;
74419;PMS5003;62855;50.718;-2.460;2024-03-23T08:31:06;5.45;3.91;
74419;PMS5003;62855;50.718;-2.460;2024-03-23T08:34:05;6.35;3.91;
74419;PMS5003;62855;50.718;-2.460;2024-03-23T08:37:05;3.63;2.93;
74419;PMS5003;62855;50.718;-2.460;2024-03-23T08:40:06;3.63;3.91;
74419;PMS5003;62855;50.718;-2.460;2024-03-23T08:43:06;5.45;4.89;
74419;PMS5003;62855;50.718;-2.460;2024-03-23T08:46:06;4.54;4.89;
74419;PMS5003;62855;50.718;-2.460;2024-03-23T08:49:06;5.45;4.89;
74419;PMS5003;62855;50.718;-2.460;2024-03-23T08:52:05;4.54;4.89;
74419;PMS5003;62855;50.718;-2.460;2024-03-23T08:55:05;4.54;4.89;
74419;PMS5003;62855;50.718;-2.460;2024-03-23T08:58:05;4.54;3.91;
74419;PMS5003;62855;50.718;-2.460;2024-03-23T09:01:06;4.54;3.91;
74419;PMS5003;62855;50.718;-2.460;2024-03-23T09:04:05;5.45;4.89;
74419;PMS5003;62855;50.718;-2.460;2024-03-23T09:07:05;4.54;4.89;
74419;PMS5003;62855;50.718;-2.460;2024-03-23T09:10:07;4.54;3.91;
74419;PMS5003;62855;50.718;-2.460;2024-03-23T09:13:06;3.63;2.93;
74419;PMS5003;62855;50.718;-2.460;2024-03-23T09:16:06;3.63;1.96;
74419;PMS5003;62855;50.718;-2.460;2024-03-23T09:19:05;2.72;1.96;
74419;PMS5003;62855;50.718;-2.460;2024-03-23T09:22:05;2.72;1.96;
74419;PMS5003;62855;50.718;-2.460;2024-03-23T09:25:06;2.72;1.96;
74419;PMS5003;62855;50.718;-2.460;2024-03-23T09:28:06;2.72;1.96;
74419;PMS5003;62855;50.718;-2.460;2024-03-23T09:31:05;2.72;1.96;
74419;PMS5003;62855;50.718;-2.460;2024-03-23T09:34:05;2.72;1.96;
74419;PMS5003;62855;50.718;-2.460;2024-03-23T09:37:05;3.63;1.96;
74419;PMS5003;62855;50.718;-2.460;2024-03-23T09:40:06;3.63;2.93;
74419;PMS5003;62855;50.718;-2.460;2024-03-23T09:43:06;4.54;2.93;
74419;PMS5003;62855;50.718;-2.460;2024-03-23T09:46:06;5.45;2.93;
74419;PMS5003;62855;50.718;-2.460;2024-03-23T09:49:06;5.45;2.93;
74419;PMS5003;62855;50.718;-2.460;2024-03-23T09:52:05;6.35;3.91;
74419;PMS5003;62855;50.718;-2.460;2024-03-23T09:55:05;6.35;3.91;
74419;PMS5003;62855;50.718;-2.460;2024-03-23T09:58:05;6.35;3.91;
74419;PMS5003;62855;50.718;-2.460;2024-03-23T10:01:05;6.35;3.91;
74419;PMS5003;62855;50.718;-2.460;2024-03-23T10:04:05;6.35;3.91;
74419;PMS5003;62855;50.718;-2.460;2024-03-23T10:07:10;8.17;5.87;
74419;PMS5003;62855;50.718;-2.460;2024-03-23T10:10:10;9.98;5.87;
74419;PMS5003;62855;50.718;-2.460;2024-03-23T10:13:05;9.98;5.87;
74419;PMS5003;62855;50.718;-2.460;2024-03-23T10:16:06;10.89;5.87;
74419;PMS5003;62855;50.718;-2.460;2024-03-23T10:19:06;10.89;3.91;
74419;PMS5003;62855;50.718;-2.460;2024-03-23T10:22:06;9.98;3.91;
74419;PMS5003;62855;50.718;-2.460;2024-03-23T10:28:05;9.08;3.91;
74419;PMS5003;62855;50.718;-2.460;2024-03-23T10:31:06;9.08;4.89;
74419;PMS5003;62855;50.718;-2.460;2024-03-23T10:34:05;8.17;3.91;
74419;PMS5003;62855;50.718;-2.460;2024-03-23T10:37:06;9.08;3.91;
74419;PMS5003;62855;50.718;-2.460;2024-03-23T10:40:05;8.17;3.91;
74419;PMS5003;62855;50.718;-2.460;2024-03-23T10:43:06;8.17;3.91;
74419;PMS5003;62855;50.718;-2.460;2024-03-23T10:46:05;5.45;3.91;
74419;PMS5003;62855;50.718;-2.460;2024-03-23T10:49:05;5.45;3.91;
74419;PMS5003;62855;50.718;-2.460;2024-03-23T10:52:06;4.54;2.93;
74419;PMS5003;62855;50.718;-2.460;2024-03-23T10:55:06;5.45;3.91;
74419;PMS5003;62855;50.718;-2.460;2024-03-23T10:58:06;6.35;3.91;
74419;PMS5003;62855;50.718;-2.460;2024-03-23T11:01:05;7.26;3.91;
74419;PMS5003;62855;50.718;-2.460;2024-03-23T11:04:06;8.17;3.91;
74419;PMS5003;62855;50.718;-2.460;2024-03-23T11:10:24;7.26;3.91;
74419;PMS5003;62855;50.718;-2.460;2024-03-23T11:22:05;8.17;4.89;
74419;PMS5003;62855;50.718;-2.460;2024-03-23T11:25:13;8.17;4.89;
74419;PMS5003;62855;50.718;-2.460;2024-03-23T11:28:10;7.26;4.89;
74419;PMS5003;62855;50.718;-2.460;2024-03-23T11:31:09;6.35;4.89;
74419;PMS5003;62855;50.718;-2.460;2024-03-23T11:34:06;6.35;4.89;
74419;PMS5003;62855;50.718;-2.460;2024-03-23T11:37:06;7.26;4.89;
74419;PMS5003;62855;50.718;-2.460;2024-03-23T11:43:05;7.26;4.89;
74419;PMS5003;62855;50.718;-2.460;2024-03-23T11:46:05;7.26;4.89;
74419;PMS5003;62855;50.718;-2.460;2024-03-23T11:49:06;7.26;4.89;
74419;PMS5003;62855;50.718;-2.460;2024-03-23T11:52:05;6.35;4.89;
74419;PMS5003;62855;50.718;-2.460;2024-03-23T11:55:05;5.45;3.91;
74419;PMS5003;62855;50.718;-2.460;2024-03-23T11:58:06;5.45;2.93;
74419;PMS5003;62855;50.718;-2.460;2024-03-23T12:01:09;5.45;3.91;
74419;PMS5003;62855;50.718;-2.460;2024-03-23T12:04:06;4.54;2.93;
74419;PMS5003;62855;50.718;-2.460;2024-03-23T12:07:09;3.63;2.93;
74419;PMS5003;62855;50.718;-2.460;2024-03-23T12:10:06;3.63;2.93;
74419;PMS5003;62855;50.718;-2.460;2024-03-23T12:16:09;4.54;3.91;
74419;PMS5003;62855;50.718;-2.460;2024-03-23T12:19:06;4.54;2.93;
74419;PMS5003;62855;50.718;-2.460;2024-03-23T12:22:05;4.54;3.91;
74419;PMS5003;62855;50.718;-2.460;2024-03-23T12:25:05;4.54;3.91;
74419;PMS5003;62855;50.718;-2.460;2024-03-23T12:28:06;5.45;3.91;
74419;PMS5003;62855;50.718;-2.460;2024-03-23T12:31:06;6.35;3.91;
74419;PMS5003;62855;50.718;-2.460;2024-03-23T12:34:05;6.35;4.89;
74419;PMS5003;62855;50.718;-2.460;2024-03-23T12:37:06;7.26;4.89;
74419;PMS5003;62855;50.718;-2.460;2024-03-23T12:40:06;6.35;4.89;
74419;PMS5003;62855;50.718;-2.460;2024-03-23T12:43:06;6.35;4.89;
74419;PMS5003;62855;50.718;-2.460;2024-03-23T12:46:06;6.35;4.89;
74419;PMS5003;62855;50.718;-2.460;2024-03-23T12:49:05;8.17;6.84;
74419;PMS5003;62855;50.718;-2.460;2024-03-23T12:52:05;9.08;6.84;
74419;PMS5003;62855;50.718;-2.460;2024-03-23T12:55:05;8.17;6.84;
74419;PMS5003;62855;50.718;-2.460;2024-03-23T12:58:06;8.17;6.84;
74419;PMS5003;62855;50.718;-2.460;2024-03-23T13:01:05;7.26;5.87;
74419;PMS5003;62855;50.718;-2.460;2024-03-23T13:04:06;6.35;5.87;
74419;PMS5003;62855;50.718;-2.460;2024-03-23T13:07:05;6.35;5.87;
74419;PMS5003;62855;50.718;-2.460;2024-03-23T13:10:05;6.35;5.87;
74419;PMS5003;62855;50.718;-2.460;2024-03-23T13:13:05;5.45;5.87;
74419;PMS5003;62855;50.718;-2.460;2024-03-23T13:16:05;5.45;5.87;
74419;PMS5003;62855;50.718;-2.460;2024-03-23T13:19:05;5.45;3.91;
74419;PMS5003;62855;50.718;-2.460;2024-03-23T13:22:05;4.54;2.93;
74419;PMS5003;62855;50.718;-2.460;2024-03-23T13:25:06;5.45;3.91;
74419;PMS5003;62855;50.718;-2.460;2024-03-23T13:28:06;4.54;2.93;
74419;PMS5003;62855;50.718;-2.460;2024-03-23T13:31:05;4.54;2.93;
74419;PMS5003;62855;50.718;-2.460;2024-03-23T13:34:05;4.54;2.93;
74419;PMS5003;62855;50.718;-2.460;2024-03-23T13:37:06;5.45;3.91;
74419;PMS5003;62855;50.718;-2.460;2024-03-23T13:40:06;5.45;2.93;
74419;PMS5003;62855;50.718;-2.460;2024-03-23T13:43:05;5.45;2.93;
74419;PMS5003;62855;50.718;-2.460;2024-03-23T13:46:05;5.45;2.93;
74419;PMS5003;62855;50.718;-2.460;2024-03-23T13:49:06;4.54;2.93;
74419;PMS5003;62855;50.718;-2.460;2024-03-23T13:52:06;5.45;2.93;
74419;PMS5003;62855;50.718;-2.460;2024-03-23T13:55:06;6.35;3.91;
74419;PMS5003;62855;50.718;-2.460;2024-03-23T13:58:05;6.35;3.91;
74419;PMS5003;62855;50.718;-2.460;2024-03-23T14:01:05;6.35;3.91;
74419;PMS5003;62855;50.718;-2.460;2024-03-23T14:04:06;5.45;3.91;
74419;PMS5003;62855;50.718;-2.460;2024-03-23T14:07:05;4.54;3.91;
74419;PMS5003;62855;50.718;-2.460;2024-03-23T14:10:05;5.45;3.91;
74419;PMS5003;62855;50.718;-2.460;2024-03-23T14:13:06;4.54;3.91;
74419;PMS5003;62855;50.718;-2.460;2024-03-23T14:16:06;3.63;2.93;
74419;PMS5003;62855;50.718;-2.460;2024-03-23T14:19:06;3.63;2.93;
74419;PMS5003;62855;50.718;-2.460;2024-03-23T14:22:05;2.72;2.93;
74419;PMS5003;62855;50.718;-2.460;2024-03-23T14:25:05;2.72;2.93;
74419;PMS5003;62855;50.718;-2.460;2024-03-23T14:28:06;3.63;2.93;
74419;PMS5003;62855;50.718;-2.460;2024-03-23T14:31:05;3.63;2.93;
74419;PMS5003;62855;50.718;-2.460;2024-03-23T14:34:05;3.63;2.93;
74419;PMS5003;62855;50.718;-2.460;2024-03-23T14:37:06;3.63;2.93;
74419;PMS5003;62855;50.718;-2.460;2024-03-23T14:40:06;2.72;2.93;
74419;PMS5003;62855;50.718;-2.460;2024-03-23T14:43:05;3.63;2.93;
74419;PMS5003;62855;50.718;-2.460;2024-03-23T14:46:07;3.63;2.93;
74419;PMS5003;62855;50.718;-2.460;2024-03-23T14:49:05;2.72;1.96;
74419;PMS5003;62855;50.718;-2.460;2024-03-23T14:52:07;3.63;2.93;
74419;PMS5003;62855;50.718;-2.460;2024-03-23T14:55:06;3.63;2.93;
74419;PMS5003;62855;50.718;-2.460;2024-03-23T14:58:06;2.72;2.93;
74419;PMS5003;62855;50.718;-2.460;2024-03-23T15:01:06;3.63;2.93;
74419;PMS5003;62855;50.718;-2.460;2024-03-23T15:04:07;3.63;2.93;
74419;PMS5003;62855;50.718;-2.460;2024-03-23T15:07:05;3.63;2.93;
74419;PMS5003;62855;50.718;-2.460;2024-03-23T15:10:05;3.63;2.93;
74419;PMS5003;62855;50.718;-2.460;2024-03-23T15:13:05;3.63;2.93;
74419;PMS5003;62855;50.718;-2.460;2024-03-23T15:16:05;3.63;2.93;
74419;PMS5003;62855;50.718;-2.460;2024-03-23T15:19:05;2.72;2.93;
74419;PMS5003;62855;50.718;-2.460;2024-03-23T15:22:06;2.72;2.93;
74419;PMS5003;62855;50.718;-2.460;2024-03-23T15:25:06;2.72;2.93;
74419;PMS5003;62855;50.718;-2.460;2024-03-23T15:28:06;2.72;2.93;
74419;PMS5003;62855;50.718;-2.460;2024-03-23T15:31:06;2.72;2.93;
74419;PMS5003;62855;50.718;-2.460;2024-03-23T15:34:06;2.72;2.93;
74419;PMS5003;62855;50.718;-2.460;2024-03-23T15:37:05;3.63;2.93;
74419;PMS5003;62855;50.718;-2.460;2024-03-23T15:40:06;3.63;2.93;
74419;PMS5003;62855;50.718;-2.460;2024-03-23T15:43:05;3.63;2.93;
74419;PMS5003;62855;50.718;-2.460;2024-03-23T15:46:06;3.63;2.93;
74419;PMS5003;62855;50.718;-2.460;2024-03-23T15:49:05;3.63;2.93;
74419;PMS5003;62855;50.718;-2.460;2024-03-23T15:52:06;3.63;2.93;
74419;PMS5003;62855;50.718;-2.460;2024-03-23T15:55:05;3.63;2.93;
74419;PMS5003;62855;50.718;-2.460;2024-03-23T15:58:06;2.72;0.98;
74419;PMS5003;62855;50.718;-2.460;2024-03-23T16:01:07;3.63;1.96;
74419;PMS5003;62855;50.718;-2.460;2024-03-23T16:04:05;2.72;1.96;
74419;PMS5003;62855;50.718;-2.460;2024-03-23T16:07:05;1.82;1.96;
74419;PMS5003;62855;50.718;-2.460;2024-03-23T16:10:06;4.54;1.96;
74419;PMS5003;62855;50.718;-2.460;2024-03-23T16:13:05;4.54;1.96;
74419;PMS5003;62855;50.718;-2.460;2024-03-23T16:16:06;4.54;1.96;
74419;PMS5003;62855;50.718;-2.460;2024-03-23T16:19:06;4.54;1.96;
74419;PMS5003;62855;50.718;-2.460;2024-03-23T16:22:05;4.54;2.93;
74419;PMS5003;62855;50.718;-2.460;2024-03-23T16:25:05;4.54;2.93;
74419;PMS5003;62855;50.718;-2.460;2024-03-23T16:28:05;3.63;1.96;
74419;PMS5003;62855;50.718;-2.460;2024-03-23T16:31:05;4.54;2.93;
74419;PMS5003;62855;50.718;-2.460;2024-03-23T16:34:06;5.45;2.93;
74419;PMS5003;62855;50.718;-2.460;2024-03-23T16:37:05;5.45;2.93;
74419;PMS5003;62855;50.718;-2.460;2024-03-23T16:40:06;2.72;2.93;
74419;PMS5003;62855;50.718;-2.460;2024-03-23T16:43:05;2.72;2.93;
74419;PMS5003;62855;50.718;-2.460;2024-03-23T16:46:05;2.72;2.93;
74419;PMS5003;62855;50.718;-2.460;2024-03-23T16:49:05;2.72;2.93;
74419;PMS5003;62855;50.718;-2.460;2024-03-23T16:52:06;3.63;1.96;
74419;PMS5003;62855;50.718;-2.460;2024-03-23T16:55:05;3.63;2.93;
74419;PMS5003;62855;50.718;-2.460;2024-03-23T16:58:05;3.63;1.96;
74419;PMS5003;62855;50.718;-2.460;2024-03-23T17:01:05;4.54;2.93;
74419;PMS5003;62855;50.718;-2.460;2024-03-23T17:04:06;4.54;2.93;
74419;PMS5003;62855;50.718;-2.460;2024-03-23T17:07:06;4.54;2.93;
74419;PMS5003;62855;50.718;-2.460;2024-03-23T17:10:05;4.54;3.91;
74419;PMS5003;62855;50.718;-2.460;2024-03-23T17:13:05;5.45;3.91;
74419;PMS5003;62855;50.718;-2.460;2024-03-23T17:16:06;5.45;3.91;
74419;PMS5003;62855;50.718;-2.460;2024-03-23T17:19:05;5.45;3.91;
74419;PMS5003;62855;50.718;-2.460;2024-03-23T17:22:05;5.45;4.89;
74419;PMS5003;62855;50.718;-2.460;2024-03-23T17:25:06;4.54;3.91;
74419;PMS5003;62855;50.718;-2.460;2024-03-23T17:28:06;5.45;4.89;
74419;PMS5003;62855;50.718;-2.460;2024-03-23T17:31:05;4.54;3.91;
74419;PMS5003;62855;50.718;-2.460;2024-03-23T17:34:06;4.54;3.91;
74419;PMS5003;62855;50.718;-2.460;2024-03-23T17:37:05;6.35;5.87;
74419;PMS5003;62855;50.718;-2.460;2024-03-23T17:40:06;7.26;4.89;
74419;PMS5003;62855;50.718;-2.460;2024-03-23T17:43:05;5.45;3.91;
74419;PMS5003;62855;50.718;-2.460;2024-03-23T17:46:06;5.45;3.91;
74419;PMS5003;62855;50.718;-2.460;2024-03-23T17:49:05;6.35;4.89;
74419;PMS5003;62855;50.718;-2.460;2024-03-23T17:52:08;5.45;3.91;
74419;PMS5003;62855;50.718;-2.460;2024-03-23T17:55:06;4.54;2.93;
74419;PMS5003;62855;50.718;-2.460;2024-03-23T17:58:06;5.45;3.91;
74419;PMS5003;62855;50.718;-2.460;2024-03-23T18:01:06;5.45;3.91;
74419;PMS5003;62855;50.718;-2.460;2024-03-23T18:04:05;5.45;3.91;
74419;PMS5003;62855;50.718;-2.460;2024-03-23T18:07:05;3.63;2.93;
74419;PMS5003;62855;50.718;-2.460;2024-03-23T18:10:06;4.54;3.91;
74419;PMS5003;62855;50.718;-2.460;2024-03-23T18:13:06;4.54;3.91;
74419;PMS5003;62855;50.718;-2.460;2024-03-23T18:16:06;3.63;3.91;
74419;PMS5003;62855;50.718;-2.460;2024-03-23T18:19:06;3.63;3.91;
74419;PMS5003;62855;50.718;-2.460;2024-03-23T18:22:05;3.63;3.91;
74419;PMS5003;62855;50.718;-2.460;2024-03-23T18:25:05;3.63;3.91;
74419;PMS5003;62855;50.718;-2.460;2024-03-23T18:28:05;4.54;3.91;
74419;PMS5003;62855;50.718;-2.460;2024-03-23T18:31:05;4.54;3.91;
74419;PMS5003;62855;50.718;-2.460;2024-03-23T18:34:06;3.63;3.91;
74419;PMS5003;62855;50.718;-2.460;2024-03-23T18:37:05;3.63;3.91;
74419;PMS5003;62855;50.718;-2.460;2024-03-23T18:40:05;2.72;2.93;
74419;PMS5003;62855;50.718;-2.460;2024-03-23T18:43:05;2.72;2.93;
74419;PMS5003;62855;50.718;-2.460;2024-03-23T18:46:06;2.72;1.96;
74419;PMS5003;62855;50.718;-2.460;2024-03-23T18:49:05;2.72;1.96;
74419;PMS5003;62855;50.718;-2.460;2024-03-23T18:52:05;2.72;2.93;
74419;PMS5003;62855;50.718;-2.460;2024-03-23T18:55:05;1.82;1.96;
74419;PMS5003;62855;50.718;-2.460;2024-03-23T18:58:05;3.63;3.91;
74419;PMS5003;62855;50.718;-2.460;2024-03-23T19:01:05;4.54;2.93;
74419;PMS5003;62855;50.718;-2.460;2024-03-23T19:04:05;4.54;2.93;
74419;PMS5003;62855;50.718;-2.460;2024-03-23T19:07:06;4.54;2.93;
74419;PMS5003;62855;50.718;-2.460;2024-03-23T19:10:06;4.54;2.93;
74419;PMS5003;62855;50.718;-2.460;2024-03-23T19:13:05;4.54;3.91;
74419;PMS5003;62855;50.718;-2.460;2024-03-23T19:16:06;4.54;3.91;
74419;PMS5003;62855;50.718;-2.460;2024-03-23T19:19:06;5.45;3.91;
74419;PMS5003;62855;50.718;-2.460;2024-03-23T19:22:06;5.45;3.91;
74419;PMS5003;62855;50.718;-2.460;2024-03-23T19:25:06;5.45;2.93;
74419;PMS5003;62855;50.718;-2.460;2024-03-23T19:28:06;3.63;2.93;
74419;PMS5003;62855;50.718;-2.460;2024-03-23T19:31:05;3.63;2.93;
74419;PMS5003;62855;50.718;-2.460;2024-03-23T19:34:05;3.63;2.93;
74419;PMS5003;62855;50.718;-2.460;2024-03-23T19:37:06;3.63;2.93;